Time;durP1;ratioP1;P1;durP2;ratioP2;P2;SDS_P1;SDS_P2;PMS_P1;PMS_P2;Temp;Humidity;BMP_temperature;BMP_pressure;BME280_temperature;BME280_humidity;BME280_pressure;Samples;Min_cycle;Max_cycle;Signal;HPM_P1;HPM_P2
2023/10/28 00:02:14;;;;;;;10.68;2.80;;;;;;;13.08;74.26;97868.03;6333422;22;20056;-95
2023/10/28 00:04:40;;;;;;;4.60;2.20;;;;;;;13.11;73.75;97867.41;6333610;22;20007;-94
2023/10/28 00:07:05;;;;;;;7.13;2.08;;;;;;;12.95;74.36;97859.75;6333493;22;20011;-94
2023/10/28 00:09:31;;;;;;;12.13;3.75;;;;;;;13.04;74.61;97856.13;6336069;22;20199;-95
2023/10/28 00:11:56;;;;;;;5.50;2.17;;;;;;;13.02;74.27;97863.88;6337336;22;20540;-94
2023/10/28 00:14:23;;;;;;;6.28;1.98;;;;;;;12.96;74.23;97861.34;6336493;22;20085;-96
2023/10/28 00:16:49;;;;;;;5.80;2.08;;;;;;;12.88;74.91;97870.38;6334016;22;20033;-94
2023/10/28 00:19:16;;;;;;;6.80;2.10;;;;;;;12.90;74.53;97868.09;6333478;22;20032;-96
2023/10/28 00:21:41;;;;;;;8.55;2.70;;;;;;;12.91;74.80;97867.00;6333310;22;20032;-95
2023/10/28 00:24:07;;;;;;;14.20;2.58;;;;;;;12.91;74.13;97858.78;6333227;22;20553;-95
2023/10/28 00:26:34;;;;;;;5.72;2.30;;;;;;;12.96;74.44;97868.72;6333370;22;20112;-95
2023/10/28 00:28:59;;;;;;;4.97;2.22;;;;;;;13.11;73.93;97870.13;6333030;22;20016;-96
2023/10/28 00:31:24;;;;;;;7.50;3.15;;;;;;;13.02;74.27;97855.66;6333363;22;20011;-95
2023/10/28 00:33:51;;;;;;;5.18;2.03;;;;;;;12.99;74.13;97864.53;6332342;22;20378;-94
2023/10/28 00:36:16;;;;;;;11.38;2.58;;;;;;;12.95;74.26;97872.59;6305360;22;20491;-96
2023/10/28 00:38:41;;;;;;;11.30;2.70;;;;;;;13.08;74.52;97871.59;6333469;22;20036;-95
2023/10/28 00:41:06;;;;;;;7.23;2.10;;;;;;;12.89;74.80;97871.19;6305742;22;20033;-96
2023/10/28 00:43:32;;;;;;;4.03;1.98;;;;;;;12.85;75.04;97865.56;6331609;22;20247;-95
2023/10/28 00:45:59;;;;;;;7.35;2.28;;;;;;;12.89;74.56;97872.00;6332604;22;19999;-96
2023/10/28 00:48:25;;;;;;;11.18;2.95;;;;;;;12.90;74.89;97870.84;6332230;22;20010;-95
2023/10/28 00:50:50;;;;;;;6.80;2.30;;;;;;;13.02;74.60;97861.94;6305070;22;20015;-96
2023/10/28 00:53:17;;;;;;;8.75;2.20;;;;;;;13.09;74.10;97864.19;6331852;22;20010;-95
2023/10/28 00:55:43;;;;;;;8.55;2.33;;;;;;;13.07;74.12;97860.97;6332900;22;20010;-96
2023/10/28 00:58:10;;;;;;;8.82;2.20;;;;;;;13.08;74.31;97863.38;6332884;22;20021;-96
2023/10/28 01:00:35;;;;;;;4.95;1.50;;;;;;;13.14;74.03;97850.31;6333321;22;20345;-96
2023/10/28 01:03:01;;;;;;;8.93;2.45;;;;;;;13.10;74.75;97862.25;6333386;22;20013;-96
2023/10/28 01:05:26;;;;;;;9.07;2.85;;;;;;;12.89;75.10;97852.84;6333148;22;20429;-96
2023/10/28 01:07:52;;;;;;;4.38;2.10;;;;;;;13.13;74.55;97854.19;6332902;22;20357;-96
2023/10/28 01:10:25;;;;;;;8.43;2.10;;;;;;;12.92;74.89;97851.38;6333165;22;20428;-95
2023/10/28 01:12:51;;;;;;;9.95;2.22;;;;;;;12.84;75.26;97855.75;6333252;22;20021;-95
2023/10/28 01:15:16;;;;;;;5.75;2.30;;;;;;;12.99;75.38;97853.59;6333154;22;20427;-96
2023/10/28 01:17:42;;;;;;;5.82;3.35;;;;;;;13.02;75.19;97850.19;6304872;22;20067;-96
2023/10/28 01:20:10;;;;;;;9.88;2.53;;;;;;;12.88;75.81;97858.63;6332503;22;20010;-95
2023/10/28 01:22:35;;;;;;;8.93;2.25;;;;;;;12.93;75.77;97851.06;6331556;22;20006;-96
2023/10/28 01:25:01;;;;;;;16.20;2.50;;;;;;;12.76;75.80;97853.84;6332537;22;20358;-96
2023/10/28 01:27:26;;;;;;;5.25;2.45;;;;;;;12.87;76.05;97854.28;6332307;22;20079;-95
2023/10/28 01:29:51;;;;;;;7.72;2.35;;;;;;;12.83;76.38;97857.66;6332758;22;20492;-95
2023/10/28 01:32:17;;;;;;;6.50;1.98;;;;;;;12.73;75.88;97860.78;6332757;22;20490;-96
2023/10/28 01:34:50;;;;;;;6.70;1.90;;;;;;;12.91;75.85;97861.53;6332885;22;20034;-95
2023/10/28 01:37:20;;;;;;;7.03;1.83;;;;;;;12.70;76.39;97867.69;6333454;22;20010;-96
2023/10/28 01:39:51;;;;;;;6.43;1.50;;;;;;;12.99;75.78;97862.63;6333443;22;20017;-96
2023/10/28 01:42:19;;;;;;;7.70;2.35;;;;;;;12.93;75.81;97867.47;6332606;22;20002;-96
2023/10/28 01:44:45;;;;;;;4.63;1.65;;;;;;;12.67;76.42;97873.78;6333070;22;20018;-95
2023/10/28 01:47:11;;;;;;;4.82;1.70;;;;;;;12.68;75.86;97872.69;6332978;22;20007;-96
2023/10/28 01:49:39;;;;;;;4.68;1.58;;;;;;;12.77;76.01;97874.59;6305170;22;20063;-95
2023/10/28 01:52:07;;;;;;;1.77;1.00;;;;;;;12.62;76.60;97868.50;6332696;22;20421;-96
2023/10/28 01:54:34;;;;;;;6.88;2.45;;;;;;;12.82;76.36;97872.47;6334445;22;19995;-96
2023/10/28 01:57:06;;;;;;;6.07;1.90;;;;;;;12.96;75.60;97869.53;6332370;22;20054;-96
2023/10/28 01:59:32;;;;;;;6.13;1.40;;;;;;;12.81;76.01;97870.84;6304767;22;20003;-96
2023/10/28 02:02:00;;;;;;;5.15;1.58;;;;;;;12.82;76.29;97866.19;6333160;22;20003;-96
2023/10/28 02:04:25;;;;;;;13.45;1.88;;;;;;;12.83;76.16;97879.53;6305366;22;20324;-96
2023/10/28 02:06:51;;;;;;;4.85;1.58;;;;;;;12.88;75.80;97885.97;6352210;22;20007;-96
2023/10/28 02:09:17;;;;;;;3.17;1.23;;;;;;;12.86;76.26;97880.03;6349550;22;20014;-96
2023/10/28 02:11:43;;;;;;;3.58;1.25;;;;;;;12.81;75.99;97891.94;6351778;22;20078;-96
2023/10/28 02:14:09;;;;;;;5.90;1.58;;;;;;;12.86;76.34;97878.09;6351593;22;20014;-96
2023/10/28 02:16:38;;;;;;;6.32;1.73;;;;;;;12.82;76.15;97883.41;6349271;22;20316;-96
2023/10/28 02:19:05;;;;;;;1.83;0.90;;;;;;;12.86;76.19;97878.09;6352701;22;20013;-96
2023/10/28 02:21:30;;;;;;;4.00;1.15;;;;;;;12.87;76.57;97878.91;6351803;22;20416;-96
2023/10/28 02:23:56;;;;;;;4.10;1.13;;;;;;;12.92;76.46;97876.78;6354453;22;20144;-96
2023/10/28 02:26:23;;;;;;;3.28;1.08;;;;;;;12.72;76.72;97881.84;6353199;22;19995;-96
2023/10/28 02:28:48;;;;;;;4.95;1.50;;;;;;;12.89;76.63;97882.13;6352163;22;20003;-96
2023/10/28 02:31:14;;;;;;;7.25;1.92;;;;;;;12.93;76.48;97883.88;6348319;22;20041;-96
2023/10/28 02:33:39;;;;;;;5.60;1.13;;;;;;;12.84;76.99;97892.09;6356288;22;19999;-96
2023/10/28 02:36:06;;;;;;;4.93;1.10;;;;;;;12.53;77.55;97892.34;6358920;22;20013;-96
2023/10/28 02:38:32;;;;;;;4.97;1.85;;;;;;;12.77;77.01;97891.00;6359424;22;20072;-96
2023/10/28 02:40:59;;;;;;;5.72;1.55;;;;;;;12.76;77.48;97892.09;6335471;22;20011;-96
2023/10/28 02:43:24;;;;;;;4.38;1.20;;;;;;;12.95;76.78;97898.03;6366210;22;20006;-96
2023/10/28 02:45:50;;;;;;;7.68;2.28;;;;;;;12.91;76.78;97899.81;6365253;22;19999;-96
2023/10/28 02:48:22;;;;;;;6.82;1.23;;;;;;;12.82;77.02;97897.09;6365669;22;19991;-96
2023/10/28 02:51:04;;;;;;;4.78;1.52;;;;;;;12.96;76.51;97896.88;6366575;22;20010;-96
2023/10/28 02:53:37;;;;;;;9.48;2.35;;;;;;;13.03;76.14;97898.31;6363561;22;20014;-96
2023/10/28 02:56:06;;;;;;;5.38;1.20;;;;;;;13.07;76.55;97899.28;6363198;22;20029;-96
2023/10/28 02:58:42;;;;;;;4.70;1.23;;;;;;;13.16;76.23;97905.50;6363004;22;20003;-96
2023/10/28 03:01:13;;;;;;;5.28;1.40;;;;;;;13.03;76.53;97898.31;6361106;22;20363;-96
2023/10/28 03:03:42;;;;;;;3.22;1.20;;;;;;;12.93;76.49;97905.75;6362250;22;20013;-96
2023/10/28 03:06:08;;;;;;;8.40;1.17;;;;;;;12.98;76.97;97903.97;6361508;22;20014;-96
2023/10/28 03:08:34;;;;;;;4.10;1.20;;;;;;;12.99;76.58;97902.84;6360883;22;20003;-96
2023/10/28 03:11:01;;;;;;;7.80;1.48;;;;;;;13.11;76.84;97910.34;6364730;22;19999;-96
2023/10/28 03:14:17;;;;;;;11.77;1.40;;;;;;;12.93;76.29;97897.56;6323418;22;20019;-96
2023/10/28 03:16:45;;;;;;;3.75;1.42;;;;;;;12.80;76.94;97904.00;6364843;22;19995;-96
2023/10/28 03:19:16;;;;;;;5.05;1.35;;;;;;;12.98;76.41;97896.56;6361904;22;20018;-96
2023/10/28 03:21:42;;;;;;;4.50;1.55;;;;;;;12.93;77.38;97905.75;6331517;22;20460;-96
2023/10/28 03:24:09;;;;;;;5.60;1.40;;;;;;;13.08;77.10;97906.34;6359850;22;20026;-95
2023/10/28 06:36:18;;;;;;;2.22;0.95;;;;;;;12.73;75.01;97932.63;6277526;22;20331;-96
2023/10/28 06:38:44;;;;;;;2.55;1.02;;;;;;;12.55;76.01;97933.81;6283826;22;20391;-96
2023/10/28 06:41:10;;;;;;;1.38;0.77;;;;;;;12.64;76.48;97936.53;6278998;22;20007;-96
2023/10/28 06:43:35;;;;;;;2.47;0.80;;;;;;;12.77;75.99;97934.75;6277188;22;20193;-96
2023/10/28 06:46:00;;;;;;;3.10;1.38;;;;;;;12.86;75.78;97935.53;6279657;22;20306;-96
2023/10/28 06:48:26;;;;;;;1.48;0.90;;;;;;;12.92;75.88;97936.97;6277385;22;20003;-96
2023/10/28 06:50:51;;;;;;;2.80;1.10;;;;;;;12.90;75.24;97938.41;6252400;22;20065;-96
2023/10/28 06:53:16;;;;;;;2.85;0.77;;;;;;;12.90;75.55;97936.47;6280122;22;20004;-96
2023/10/28 06:55:45;;;;;;;5.60;1.02;;;;;;;12.75;75.64;97939.72;6287353;22;19996;-96
2023/10/28 07:01:41;;;;;;;3.10;1.45;;;;;;;12.87;75.23;97941.81;6302954;22;20052;-96
2023/10/28 07:04:13;;;;;;;2.55;0.95;;;;;;;12.95;75.16;97936.31;6301390;22;20071;-96
2023/10/28 07:07:01;;;;;;;1.80;0.93;;;;;;;12.89;75.53;97939.53;6293753;22;20014;-96
2023/10/28 07:09:36;;;;;;;1.50;0.70;;;;;;;12.84;75.34;97940.50;6277114;22;20012;-96
2023/10/28 07:12:03;;;;;;;5.43;3.15;;;;;;;12.96;75.10;97940.66;6303044;22;19996;-96
2023/10/28 07:14:31;;;;;;;2.85;1.15;;;;;;;12.88;75.70;97946.94;6276399;22;20011;-96
2023/10/28 07:16:59;;;;;;;3.03;0.90;;;;;;;12.93;75.08;97938.59;6276391;22;20000;-96
2023/10/28 07:19:28;;;;;;;4.22;0.80;;;;;;;12.69;75.89;97945.34;6304094;22;20019;-96
2023/10/28 07:21:57;;;;;;;2.25;0.70;;;;;;;12.98;75.05;97950.47;6303575;22;20004;-96
2023/10/28 15:26:39;;;;;;;4.18;0.85;;;;;;;15.07;70.12;98052.50;6300719;22;20029;-92
2023/10/28 15:29:05;;;;;;;159.48;35.13;;;;;;;14.98;69.90;98050.63;6330664;22;20522;-93
2023/10/28 15:31:31;;;;;;;40.88;10.90;;;;;;;14.91;69.50;98036.63;6332535;22;20011;-91
2023/10/28 15:33:58;;;;;;;466.00;156.15;;;;;;;15.04;69.60;98038.31;6332838;22;20054;-92
2023/10/28 15:36:23;;;;;;;221.98;66.97;;;;;;;15.00;69.73;98044.81;6305321;22;20006;-91
2023/10/28 15:38:49;;;;;;;68.40;35.72;;;;;;;14.68;69.76;98048.75;6333213;22;20011;-94
2023/10/28 15:41:15;;;;;;;37.42;8.20;;;;;;;15.02;69.57;98046.09;6309035;22;20010;-94
2023/10/28 15:43:42;;;;;;;14.38;5.35;;;;;;;15.02;69.86;98048.00;6334819;22;20006;-94
2023/10/28 15:46:11;;;;;;;18.50;11.57;;;;;;;14.85;69.39;98047.03;6333314;22;20006;-95
2023/10/28 15:48:38;;;;;;;29.17;16.60;;;;;;;15.00;69.44;98062.06;6336794;22;20006;-96
2023/10/28 15:51:05;;;;;;;168.05;42.80;;;;;;;14.90;69.80;98049.56;6337408;22;20014;-92
2023/10/28 15:53:31;;;;;;;361.90;103.53;;;;;;;14.99;69.54;98051.44;6333640;22;20060;-93
2023/10/28 15:55:57;;;;;;;17.95;6.75;;;;;;;14.80;69.69;98055.44;6333800;22;20018;-92
2023/10/28 15:58:22;;;;;;;6.72;2.55;;;;;;;14.82;69.82;98056.72;6331329;22;20007;-92
2023/10/28 16:00:48;;;;;;;11.60;7.53;;;;;;;14.90;69.95;98059.75;6331780;22;20021;-92
2023/10/28 16:03:15;;;;;;;12.82;5.82;;;;;;;14.87;70.01;98054.94;6306305;22;20021;-95
2023/10/28 16:05:40;;;;;;;7.72;2.95;;;;;;;14.65;70.16;98057.63;6333625;22;20022;-91
2023/10/28 16:08:06;;;;;;;3.90;2.35;;;;;;;14.45;70.95;98053.75;6305783;22;20007;-92
2023/10/28 16:10:31;;;;;;;6.00;1.63;;;;;;;14.68;70.61;98054.25;6333345;22;20018;-91
2023/10/28 16:12:57;;;;;;;7.03;1.50;;;;;;;14.53;71.27;98058.38;6333100;22;20095;-91
2023/10/28 16:15:22;;;;;;;7.32;1.17;;;;;;;14.31;71.94;98052.06;6304234;22;20057;-91
2023/10/28 16:17:48;;;;;;;2.25;0.85;;;;;;;14.45;71.63;98056.50;6332371;22;20022;-92
2023/10/28 16:20:13;;;;;;;2.42;0.93;;;;;;;14.38;71.55;98056.22;6332953;22;20082;-92
2023/10/28 16:22:39;;;;;;;5.82;1.70;;;;;;;14.30;71.51;98058.66;6332647;22;20014;-91
2023/10/28 16:25:07;;;;;;;4.28;1.40;;;;;;;14.39;72.07;98052.34;6332197;22;20025;-91
2023/10/28 16:27:34;;;;;;;2.55;1.17;;;;;;;14.38;72.11;98050.75;6332172;22;20093;-91
2023/10/28 16:29:59;;;;;;;2.38;0.82;;;;;;;14.27;72.35;98050.31;6333053;22;20373;-91
2023/10/28 16:32:25;;;;;;;2.15;0.77;;;;;;;14.28;72.38;98047.22;6332401;22;20009;-92
2023/10/28 16:34:50;;;;;;;5.28;1.40;;;;;;;14.36;71.96;98054.59;6304792;22;20183;-91
2023/10/28 16:37:15;;;;;;;4.25;1.42;;;;;;;14.33;72.04;98044.31;6331953;22;20013;-91
2023/10/28 16:39:41;;;;;;;2.80;1.30;;;;;;;14.44;71.65;98043.94;6333361;22;20014;-91
2023/10/28 16:42:07;;;;;;;3.00;0.98;;;;;;;14.45;71.60;98045.53;6331895;22;20038;-91
2023/10/28 16:44:33;;;;;;;1.55;0.63;;;;;;;14.27;72.00;98042.91;6333197;22;20003;-91
2023/10/28 16:46:58;;;;;;;1.25;0.47;;;;;;;14.34;72.03;98043.16;6333094;22;20009;-91
2023/10/28 16:49:24;;;;;;;1.08;0.45;;;;;;;14.32;71.97;98037.22;6332448;22;20002;-90
2023/10/28 16:51:49;;;;;;;3.58;0.90;;;;;;;14.35;72.24;98039.31;6332521;22;20003;-91
2023/10/28 16:54:14;;;;;;;2.08;0.63;;;;;;;14.34;71.82;98028.66;6332839;22;20079;-95
2023/10/28 16:56:41;;;;;;;1.45;0.50;;;;;;;14.42;72.09;98040.72;6333430;22;20040;-92
2023/10/28 16:59:06;;;;;;;36.95;21.73;;;;;;;14.34;72.14;98054.13;6334203;22;19999;-92
2023/10/28 17:01:31;;;;;;;172.18;105.40;;;;;;;14.21;71.97;98053.25;6332994;22;20006;-92
2023/10/28 17:03:58;;;;;;;50.50;31.92;;;;;;;14.32;71.88;98059.13;6332798;22;20052;-93
2023/10/28 17:06:25;;;;;;;56.05;49.83;;;;;;;14.07;72.76;98069.13;6310599;22;20002;-96
2023/10/28 17:08:52;;;;;;;77.43;69.10;;;;;;;14.23;72.86;98080.31;6335341;22;20015;-93
2023/10/28 17:11:18;;;;;;;48.80;44.03;;;;;;;14.20;72.95;98073.56;6333659;22;20402;-94
2023/10/28 17:13:43;;;;;;;60.55;53.40;;;;;;;14.20;73.30;98083.72;6332178;22;19999;-93
2023/10/28 17:16:09;;;;;;;28.45;24.70;;;;;;;14.25;73.29;98078.06;6333984;22;20450;-95
2023/10/28 17:18:34;;;;;;;24.48;21.67;;;;;;;14.27;72.88;98088.69;6335181;22;20238;-91
2023/10/28 17:21:04;;;;;;;31.58;27.77;;;;;;;14.29;73.17;98081.75;6332918;22;20467;-92
2023/10/28 17:23:30;;;;;;;50.75;45.67;;;;;;;14.29;73.06;98089.16;6332238;22;20493;-93
2023/10/28 17:25:55;;;;;;;28.50;21.45;;;;;;;14.29;73.63;98087.22;6340487;22;20010;-96
2023/10/28 17:28:20;;;;;;;77.22;62.53;;;;;;;14.40;73.41;98093.13;6356854;22;20011;-96
2023/10/28 17:30:47;;;;;;;51.67;32.50;;;;;;;14.17;73.39;98092.59;6342100;22;20060;-96
2023/10/28 17:33:12;;;;;;;77.07;53.08;;;;;;;14.44;73.38;98099.53;6336233;22;20011;-96
2023/10/28 17:35:41;;;;;;;151.75;101.13;;;;;;;14.44;73.29;98105.03;6332820;22;20128;-95
2023/10/28 17:38:06;;;;;;;247.75;178.75;;;;;;;14.42;73.30;98093.59;6332152;22;20325;-93
2023/10/28 17:40:31;;;;;;;283.33;210.40;;;;;;;14.18;74.16;98091.47;6330838;22;20015;-96
2023/10/28 17:42:57;;;;;;;223.48;177.95;;;;;;;14.43;73.37;98088.91;6331203;22;20217;-94
2023/10/28 17:45:22;;;;;;;158.40;118.50;;;;;;;14.51;73.21;98085.31;6331624;22;20486;-93
2023/10/28 17:47:47;;;;;;;228.93;156.85;;;;;;;14.46;73.33;98083.56;6305287;22;20086;-96
2023/10/28 17:50:13;;;;;;;150.27;101.78;;;;;;;14.48;73.05;98078.56;6333459;22;20007;-95
2023/10/28 17:52:38;;;;;;;60.90;41.13;;;;;;;14.54;73.19;98084.63;6332568;22;20041;-93
2023/10/28 17:55:04;;;;;;;188.93;130.65;;;;;;;14.42;73.49;98087.31;6329348;22;19998;-91
2023/10/28 17:57:30;;;;;;;90.03;54.38;;;;;;;14.26;73.87;98093.34;6302163;22;20530;-92
2023/10/28 17:59:56;;;;;;;58.38;43.92;;;;;;;14.28;74.01;98085.59;6330391;22;20026;-93
2023/10/28 18:02:21;;;;;;;34.97;20.73;;;;;;;14.19;74.18;98087.59;6330822;22;20003;-93
2023/10/28 18:04:47;;;;;;;76.88;54.15;;;;;;;14.04;74.60;98087.00;6330082;22;20341;-92
2023/10/28 18:07:13;;;;;;;43.50;25.67;;;;;;;14.14;74.65;98085.84;6331622;22;20007;-93
2023/10/28 18:09:39;;;;;;;37.13;20.83;;;;;;;14.26;73.76;98093.34;6331346;22;20344;-92
2023/10/28 18:12:04;;;;;;;26.55;12.43;;;;;;;14.19;74.05;98095.81;6331384;22;20010;-93
2023/10/28 18:14:30;;;;;;;31.73;18.75;;;;;;;14.09;74.80;98088.78;6331212;22;20003;-91
2023/10/28 18:16:55;;;;;;;16.33;7.72;;;;;;;14.09;74.17;98078.63;6331060;22;20472;-92
2023/10/28 18:19:21;;;;;;;33.97;19.58;;;;;;;14.24;74.19;98084.66;6330458;22;20028;-92
2023/10/28 18:21:47;;;;;;;28.35;10.55;;;;;;;14.06;74.37;98083.94;6331224;22;20234;-92
2023/10/28 18:24:13;;;;;;;11.52;4.53;;;;;;;14.24;73.95;98081.91;6330977;22;20003;-92
2023/10/28 18:26:38;;;;;;;21.75;8.45;;;;;;;14.15;73.97;98076.50;6330628;22;20025;-93
2023/10/28 18:29:04;;;;;;;11.80;6.10;;;;;;;14.19;73.91;98079.38;6331628;22;20006;-91
2023/10/28 18:31:30;;;;;;;11.75;4.03;;;;;;;14.19;74.12;98082.94;6331815;22;20011;-93
2023/10/28 18:33:56;;;;;;;8.75;2.58;;;;;;;14.13;74.13;98089.72;6330770;22;20400;-92
2023/10/28 18:36:22;;;;;;;6.15;2.28;;;;;;;14.09;74.32;98084.09;6331150;22;20013;-93
2023/10/28 18:38:50;;;;;;;5.50;2.65;;;;;;;14.06;74.23;98078.47;6331590;22;20053;-93
2023/10/28 18:41:16;;;;;;;4.93;1.92;;;;;;;14.09;74.04;98075.88;6329513;22;20085;-93
2023/10/28 18:43:41;;;;;;;2.88;1.00;;;;;;;14.07;73.94;98080.91;6331134;22;20068;-92
2023/10/28 18:46:06;;;;;;;7.50;2.65;;;;;;;14.27;73.63;98078.53;6329995;22;20029;-92
2023/10/28 18:48:32;;;;;;;4.38;1.30;;;;;;;14.32;73.50;98070.09;6330139;22;20011;-93
2023/10/28 18:51:05;;;;;;;3.95;1.38;;;;;;;14.24;73.00;98077.25;6302110;22;20447;-92
2023/10/28 18:53:30;;;;;;;2.67;1.35;;;;;;;14.22;73.25;98075.97;6331391;22;20098;-92
2023/10/28 18:55:55;;;;;;;4.07;1.08;;;;;;;14.31;73.34;98063.03;6331579;22;20038;-92
2023/10/28 18:58:21;;;;;;;5.55;1.33;;;;;;;14.06;73.67;98079.28;6331639;22;20118;-93
2023/10/28 19:00:46;;;;;;;3.70;1.20;;;;;;;14.15;73.56;98067.47;6304970;22;20002;-92
2023/10/28 19:03:13;;;;;;;3.08;1.13;;;;;;;13.98;74.25;98067.22;6333174;22;20111;-93
2023/10/28 19:05:39;;;;;;;2.55;0.70;;;;;;;14.03;74.13;98068.97;6333583;22;20444;-93
2023/10/28 19:08:05;;;;;;;4.55;1.67;;;;;;;14.00;74.02;98064.97;6334105;22;20002;-92
2023/10/28 19:10:30;;;;;;;1.73;0.50;;;;;;;13.99;73.59;98057.06;6331428;22;20007;-94
2023/10/28 19:12:55;;;;;;;1.73;0.90;;;;;;;14.11;73.55;98057.19;6332946;22;20005;-92
2023/10/28 19:15:21;;;;;;;3.93;1.07;;;;;;;14.04;73.77;98054.13;6330365;22;20061;-93
2023/10/28 19:17:46;;;;;;;2.53;0.80;;;;;;;14.09;74.01;98045.75;6303328;22;20363;-92
2023/10/28 19:20:12;;;;;;;3.10;1.00;;;;;;;13.92;73.75;98049.38;6331762;22;20186;-93
2023/10/28 19:22:37;;;;;;;2.63;0.73;;;;;;;14.17;73.29;98035.06;6332622;22;20013;-92
2023/10/28 19:25:04;;;;;;;4.80;1.38;;;;;;;14.08;73.68;98032.34;6332298;22;20041;-91
2023/10/28 19:27:30;;;;;;;6.10;1.33;;;;;;;14.02;73.83;98034.47;6331909;22;20011;-92
2023/10/28 19:29:55;;;;;;;6.43;0.98;;;;;;;14.05;73.62;98027.56;6304984;22;20006;-93
2023/10/28 19:32:21;;;;;;;2.40;0.90;;;;;;;14.08;73.83;98022.19;6332492;22;20007;-92
2023/10/28 19:34:46;;;;;;;1.27;0.80;;;;;;;14.17;73.59;98019.44;6332723;22;20253;-93
2023/10/28 19:37:13;;;;;;;3.58;0.90;;;;;;;13.95;74.09;98029.50;6304498;22;20038;-93
2023/10/28 19:39:39;;;;;;;2.33;1.05;;;;;;;14.08;73.81;98015.91;6332739;22;20007;-92
2023/10/28 19:42:05;;;;;;;3.25;0.85;;;;;;;14.08;74.03;98019.47;6305085;22;20050;-92
2023/10/28 19:44:31;;;;;;;2.15;0.88;;;;;;;14.08;74.24;98022.19;6332077;22;20021;-92
2023/10/28 19:46:56;;;;;;;2.60;1.30;;;;;;;14.03;74.53;98011.44;6332378;22;20014;-94
2023/10/28 19:49:22;;;;;;;3.92;1.00;;;;;;;14.12;74.54;98016.84;6332939;22;20275;-92
2023/10/28 19:51:47;;;;;;;3.15;1.42;;;;;;;13.94;75.35;98010.69;6332949;22;20018;-93
2023/10/28 19:54:12;;;;;;;2.13;0.73;;;;;;;14.08;75.40;98013.97;6332079;22;20013;-93
2023/10/28 19:56:38;;;;;;;1.27;0.65;;;;;;;14.02;75.05;98018.03;6337094;22;20156;-93
2023/10/28 19:59:04;;;;;;;2.90;1.00;;;;;;;14.14;74.96;98013.81;6337419;22;20054;-93
2023/10/28 20:01:30;;;;;;;4.85;2.05;;;;;;;14.06;75.15;98019.00;6332901;22;20034;-93
2023/10/28 20:03:56;;;;;;;6.10;1.95;;;;;;;14.12;75.34;98012.19;6332625;22;20003;-93
2023/10/28 20:06:22;;;;;;;8.82;1.45;;;;;;;14.03;75.47;98019.66;6332520;22;20002;-93
2023/10/28 20:08:47;;;;;;;5.55;1.60;;;;;;;14.04;75.55;98021.25;6333024;22;20137;-94
2023/10/28 20:11:13;;;;;;;5.25;1.52;;;;;;;13.92;75.64;98019.22;6331982;22;20077;-94
2023/10/28 20:13:39;;;;;;;4.03;1.17;;;;;;;14.00;76.29;98009.34;6305113;22;20034;-94
2023/10/28 20:16:04;;;;;;;3.58;0.98;;;;;;;13.92;76.33;98011.00;6331879;22;20010;-94
2023/10/28 20:18:30;;;;;;;3.72;1.33;;;;;;;13.91;76.66;98006.69;6332454;22;20007;-94
2023/10/28 20:20:56;;;;;;;7.50;1.30;;;;;;;14.04;76.79;98010.31;6333053;22;20010;-95
2023/10/28 20:23:21;;;;;;;3.53;1.23;;;;;;;14.03;76.68;98002.41;6331992;22;19999;-95
2023/10/28 20:25:47;;;;;;;3.58;1.60;;;;;;;13.99;77.14;98008.53;6332572;22;20006;-95
2023/10/28 20:28:12;;;;;;;21.08;1.70;;;;;;;13.88;77.41;98007.31;6300428;22;20057;-95
2023/10/28 20:30:40;;;;;;;5.70;1.33;;;;;;;13.73;77.96;98001.25;6274532;22;20460;-96
2023/10/28 20:33:05;;;;;;;7.78;1.60;;;;;;;13.93;77.44;97998.13;6275432;22;20223;-95
2023/10/28 20:35:32;;;;;;;5.75;1.60;;;;;;;13.85;77.89;97997.81;6301693;22;20380;-95
2023/10/28 20:37:57;;;;;;;4.80;1.35;;;;;;;13.94;77.88;97999.72;6274861;22;20011;-95
2023/10/28 20:40:22;;;;;;;6.75;1.30;;;;;;;13.84;78.35;97996.22;6302233;22;20141;-96
2023/10/28 20:42:48;;;;;;;4.20;1.27;;;;;;;13.84;78.81;97996.22;6301250;22;20076;-96
2023/10/28 20:45:15;;;;;;;3.92;1.08;;;;;;;13.85;78.47;97995.09;6301627;22;20010;-94
2023/10/28 20:47:40;;;;;;;4.97;1.48;;;;;;;13.91;78.18;97992.16;6301855;22;20031;-94
2023/10/28 20:50:07;;;;;;;4.20;1.85;;;;;;;13.93;78.13;97984.44;6302198;22;20015;-95
2023/10/28 20:52:33;;;;;;;3.97;1.27;;;;;;;13.93;78.61;97998.13;6274169;22;20011;-95
2023/10/28 20:54:58;;;;;;;3.17;1.10;;;;;;;13.82;79.38;97982.06;6302018;22;20010;-92
2023/10/28 20:57:23;;;;;;;3.75;2.15;;;;;;;13.85;79.29;97983.34;6300651;22;20064;-92
2023/10/28 20:59:49;;;;;;;5.80;1.27;;;;;;;13.71;79.31;97964.41;6300554;22;20022;-92
2023/10/28 21:02:14;;;;;;;5.25;1.25;;;;;;;13.63;79.74;97983.28;6273276;22;20038;-92
2023/10/28 21:04:40;;;;;;;3.10;1.15;;;;;;;13.62;80.32;97976.19;6273382;22;20077;-92
2023/10/28 21:07:09;;;;;;;3.60;1.08;;;;;;;13.88;79.77;97969.78;6300426;22;20011;-91
2023/10/28 21:09:35;;;;;;;2.47;0.95;;;;;;;13.83;79.50;97972.69;6300835;22;20007;-93
2023/10/28 21:12:02;;;;;;;1.92;1.10;;;;;;;13.82;79.82;97967.56;6300606;22;20504;-92
2023/10/28 21:14:28;;;;;;;2.67;1.20;;;;;;;13.90;79.85;97955.75;6299818;22;20284;-92
2023/10/28 21:16:54;;;;;;;2.15;1.27;;;;;;;13.94;79.67;97958.63;6300189;22;20463;-92
2023/10/28 21:19:19;;;;;;;3.03;1.02;;;;;;;13.68;80.32;97948.63;6272710;22;20026;-92
2023/10/28 21:21:44;;;;;;;5.38;1.65;;;;;;;13.80;80.71;97939.69;6300778;22;20348;-91
2023/10/28 21:24:10;;;;;;;2.60;1.17;;;;;;;13.68;80.52;97937.69;6299456;22;20107;-92
2023/10/28 21:26:35;;;;;;;6.50;1.75;;;;;;;13.45;81.24;97944.19;6304835;22;20019;-92
2023/10/28 21:29:01;;;;;;;4.68;1.10;;;;;;;13.69;80.95;97933.81;6331355;22;20459;-92
2023/10/28 21:31:27;;;;;;;3.92;1.63;;;;;;;13.71;81.07;97934.28;6331672;22;20018;-92
2023/10/28 21:33:52;;;;;;;6.60;2.05;;;;;;;13.64;81.37;97916.44;6331116;22;20006;-92
2023/10/28 21:36:18;;;;;;;6.30;1.95;;;;;;;13.78;81.04;97923.59;6331274;22;20457;-91
2023/10/28 21:38:43;;;;;;;4.07;1.77;;;;;;;13.74;80.87;97917.19;6331864;22;20038;-91
2023/10/28 21:41:08;;;;;;;3.53;1.38;;;;;;;13.81;80.86;97920.19;6331394;22;20433;-91
2023/10/28 21:43:34;;;;;;;4.00;1.30;;;;;;;13.77;81.30;97908.28;6331575;22;20086;-92
2023/10/28 21:46:04;;;;;;;4.55;2.00;;;;;;;13.57;81.70;97910.66;6303593;22;20003;-91
2023/10/28 21:48:30;;;;;;;5.53;1.80;;;;;;;13.73;81.72;97919.13;6331600;22;20007;-92
2023/10/28 21:50:56;;;;;;;3.38;1.42;;;;;;;13.64;81.77;97904.69;6331659;22;20130;-91
2023/10/28 21:53:22;;;;;;;3.15;1.30;;;;;;;13.75;81.38;97899.63;6331626;22;20034;-92
2023/10/28 21:55:47;;;;;;;3.95;1.30;;;;;;;13.74;81.64;97896.09;6331077;22;20013;-92
2023/10/28 21:58:14;;;;;;;4.30;1.83;;;;;;;13.71;81.18;97904.16;6331734;22;20302;-92
2023/10/28 22:03:12;;;;;;;3.47;1.55;;;;;;;13.79;81.03;97888.81;6330794;22;20641;-92
2023/10/28 22:05:38;;;;;;;12.32;2.83;;;;;;;13.72;81.73;97892.06;6331375;22;20010;-93
2023/10/28 22:08:05;;;;;;;5.90;1.63;;;;;;;13.69;81.56;97873.56;6331937;22;20060;-94
2023/10/28 22:10:31;;;;;;;5.15;1.63;;;;;;;13.75;81.62;97883.19;6331595;22;20010;-93
2023/10/28 22:12:57;;;;;;;5.20;2.22;;;;;;;13.88;81.30;97875.84;6331633;22;20393;-93
2023/10/28 22:15:23;;;;;;;3.80;1.98;;;;;;;13.86;81.41;97870.72;6331648;22;20370;-93
2023/10/28 22:17:49;;;;;;;7.95;1.90;;;;;;;13.81;81.07;97857.19;6332096;22;20002;-94
2023/10/28 22:20:15;;;;;;;5.38;1.83;;;;;;;13.63;81.76;97856.50;6332156;22;20010;-93
2023/10/28 22:22:41;;;;;;;3.42;1.70;;;;;;;13.64;81.77;97841.72;6331391;22;19998;-94
2023/10/28 22:25:08;;;;;;;4.55;1.67;;;;;;;13.62;82.31;97847.53;6305632;22;20484;-94
2023/10/28 22:27:34;;;;;;;4.78;1.83;;;;;;;13.55;82.25;97860.91;6335904;22;20019;-93
2023/10/28 22:30:00;;;;;;;3.83;1.65;;;;;;;13.58;82.47;97835.63;6336083;22;20007;-92
2023/10/28 22:32:25;;;;;;;7.68;2.25;;;;;;;13.62;82.56;97830.28;6332247;22;20710;-93
2023/10/28 22:34:51;;;;;;;5.88;1.77;;;;;;;13.65;82.28;97829.59;6332760;22;20443;-93
2023/10/28 22:37:16;;;;;;;5.15;2.05;;;;;;;13.67;81.65;97821.09;6306316;22;20087;-94
2023/10/28 22:39:42;;;;;;;4.80;1.27;;;;;;;13.63;82.02;97813.50;6333528;22;20042;-93
2023/10/28 22:42:07;;;;;;;5.45;1.90;;;;;;;13.55;82.52;97814.38;6333007;22;20010;-94
2023/10/28 22:44:33;;;;;;;3.95;1.52;;;;;;;13.61;82.69;97815.78;6333074;22;20002;-94